Yonkers, NY

6:08 AM EDT on August 26, 2016 (GMT -0400)
Sarah Lawrence College | | Change Station

Elev 207 ft 40.93 °N, 73.84 °W | Updated 15 seconds ago

Scattered Clouds
Scattered Clouds
76.3 °F
Feels Like 77 °F
N
0.0
Wind Variable Wind from SE
Gusts 1.0 mph

Today
High -- | Low -- °F
--% Chance of Precip.
Yesterday
High -- | Low -- °F
Precip. -- in
Pressure 29.98 in
Visibility 10.0 miles
Clouds Scattered Clouds 6000 ft
Scattered Clouds 25000 ft
Heat Index 77 °F
Dew Point 71 °F
Humidity 84%
Rainfall 0.00 in
Snow Depth Not available.
6:16 AM 7:36 PM
Last Quarter, 36% visible
METAR KLGA 260951Z 20009KT 10SM SCT060 SCT250 25/21 A2997 RMK AO2 SLP150 T02500211
Pressure 29.98 in
Visibility 10.0 miles
Clouds Scattered Clouds 6000 ft
Scattered Clouds 25000 ft
Heat Index 77 °F
Dew Point 71 °F
Humidity 84%
Rainfall 0.00 in
Snow Depth Not available.
6:16 AM 7:36 PM
Last Quarter, 36% visible
METAR KLGA 260951Z 20009KT 10SM SCT060 SCT250 25/21 A2997 RMK AO2 SLP150 T02500211

10-Day Weather Forecast

Almanac

Astronomy

Aug. 26, 2016 Rise Set
Actual Time
Civil Twilight
Nautical Twilight
Astronomical Twilight
Moon
Length of Visible Light
Length of Day
Tomorrow will be .
, % of the Moon is Illuminated

Today's Extremes

State Highs State Lows

Community

WunderPhotos

Upload Photos

1,935,069 photos uploaded!

WunderBlog® & News

Nearby

Air Quality

  Air Quality AQ Index Pollutant
Not available.

Snow Depth

Station Depth Elevation

Earthquake Activity

City Distance Mag. Time & Date
Minimum magnitude displayed is 2.5.

Coastal Water Temperatures

Place Temperature

Stations

Nearby Weather Stations

Station Location Temp. Windchill Dew Point Humidity Wind Precip. Elev Updated Type
                   

Watches & Warnings

There are currently no watches in effect.